Beaver, UT (84713)

11:51 PM MST on February 13, 2016 (GMT -0700)
West Beaver City | | Change Station
CLOSE
Current Station
Personal Weather Station
Location: Beaver, UT
Elevation: 5912 ft
Nearby Weather Stations

Elev 5912 ft 38.28 °N, 112.65 °W | Updated 7 minutes ago

Mostly Cloudy
Mostly Cloudy
25.2 °F
Feels Like 25 °F
N
0.0
Wind Variable Wind from ESE
Gusts 2.0 mph

Today
High -- | Low -- °F
--% Chance of Precip.
Yesterday
High -- | Low -- °F
Precip. -- in
Pressure 30.30 in
Visibility 3.0 miles
Clouds Scattered Clouds 200 ft
Windchill 25 °F
Dew Point 17 °F
Humidity 72%
Rainfall 0.00 in
Snow Depth Not available.
7:24 AM 6:06 PM
Waxing Crescent, 38% visible
SPECI KMLF 140604Z AUTO 33004KT 3SM BR SCT002 M11/M12 A3030 RMK AO2 T11061117
Pressure 30.30 in
Visibility 3.0 miles
Clouds Scattered Clouds 200 ft
Windchill 25 °F
Dew Point 17 °F
Humidity 72%
Rainfall 0.00 in
Snow Depth Not available.
7:24 AM 6:06 PM
Waxing Crescent, 38% visible
SPECI KMLF 140604Z AUTO 33004KT 3SM BR SCT002 M11/M12 A3030 RMK AO2 T11061117

10-Day Weather Forecast

Almanac

Astronomy

Feb. 13, 2016 Rise Set
Actual Time
Civil Twilight
Nautical Twilight
Astronomical Twilight
Moon
Length of Visible Light
Length of Day
Tomorrow will be .
, % of the Moon is Illuminated

Today's Extremes

State Highs State Lows

Community

WunderPhotos

Upload Photos

1,892,757 photos uploaded!

WunderBlog® & News

Nearby

Air Quality

  Air Quality AQ Index Pollutant
Not available.

Snow Depth

Station Depth Elevation

Earthquake Activity

City Distance Mag. Time & Date
Minimum magnitude displayed is 2.5.

Coastal Water Temperatures

Place Temperature

Stations

Nearby Weather Stations

Station Location Temp. Windchill Dew Point Humidity Wind Precip. Elev Updated Type
                   

Watches & Warnings

There are currently no watches in effect.